Norris Observed Data For Previous 48 Hours

Caption
Day and Hour Reservoir Elevation (behind dam)* Tailwater Elevation (below dam)* Average Hourly Discharge*
5/24/2019 2 AM EDT 1,020.57 821.80 20
5/24/2019 3 AM EDT 1,020.57 821.63 20
5/24/2019 4 AM EDT 1,020.57 821.51 20
5/24/2019 5 AM EDT 1,020.58 821.39 20
5/24/2019 6 AM EDT 1,020.59 821.28 20
5/24/2019 7 AM EDT 1,020.59 821.17 20
5/24/2019 8 AM EDT 1,020.60 821.07 20
5/24/2019 9 AM EDT 1,020.58 823.41 435
5/24/2019 10 AM EDT 1,020.56 825.98 3,770
5/24/2019 11 AM EDT 1,020.57 826.77 6,803
5/24/2019 12 PM EDT 1,020.57 826.81 6,790
5/24/2019 1 PM EDT 1,020.55 826.77 6,801
5/24/2019 2 PM EDT 1,020.54 826.78 6,802
5/24/2019 3 PM EDT 1,020.53 826.82 6,797
5/24/2019 4 PM EDT 1,020.51 826.78 6,808
5/24/2019 5 PM EDT 1,020.51 826.84 6,806
5/24/2019 6 PM EDT 1,020.50 826.80 6,800
5/24/2019 7 PM EDT 1,020.50 824.73 3,544
5/24/2019 8 PM EDT 1,020.52 822.43 978
5/24/2019 9 PM EDT 1,020.51 821.87 20
5/24/2019 10 PM EDT 1,020.51 821.67 20
5/24/2019 11 PM EDT 1,020.52 821.54 20
5/25/2019 12 AM EDT 1,020.52 821.42 20
5/25/2019 1 AM EDT 1,020.52 821.30 20
5/25/2019 2 AM EDT 1,020.51 823.49 443
5/25/2019 3 AM EDT 1,020.53 823.48 3,133
5/25/2019 4 AM EDT 1,020.54 822.07 20
5/25/2019 5 AM EDT 1,020.53 821.76 20
5/25/2019 6 AM EDT 1,020.53 821.60 20
5/25/2019 7 AM EDT 1,020.55 821.48 20
5/25/2019 8 AM EDT 1,020.55 821.36 20
5/25/2019 9 AM EDT 1,020.55 821.24 20
5/25/2019 10 AM EDT 1,020.53 823.46 436
5/25/2019 11 AM EDT 1,020.53 824.49 3,421
5/25/2019 12 PM EDT 1,020.54 824.65 3,419
5/25/2019 1 PM EDT 1,020.54 824.66 3,419
5/25/2019 2 PM EDT 1,020.50 826.10 3,766
5/25/2019 3 PM EDT 1,020.49 826.80 6,807
5/25/2019 4 PM EDT 1,020.49 826.79 6,796
5/25/2019 5 PM EDT 1,020.49 826.79 6,797
5/25/2019 6 PM EDT 1,020.49 826.82 6,806
5/25/2019 7 PM EDT 1,020.51 822.41 251
5/25/2019 8 PM EDT 1,020.49 821.86 20
5/25/2019 9 PM EDT 1,020.49 821.66 20
5/25/2019 10 PM EDT 1,020.50 821.53 20
5/25/2019 11 PM EDT 1,020.50 821.41 20
5/26/2019 12 AM EDT 1,020.52 821.29 20
5/26/2019 1 AM EDT 1,020.52 821.18 20
5/26/2019 2 AM EDT 1,020.49 823.44 438
5/26/2019 3 AM EDT 1,020.53 823.45 3,132
5/26/2019 4 AM EDT 1,020.52 822.07 20
5/26/2019 5 AM EDT 1,020.51 821.75 20
5/26/2019 6 AM EDT 1,020.51 821.60 20
5/26/2019 7 AM EDT 1,020.53 821.47 20
5/26/2019 8 AM EDT 1,020.53 821.35 20
5/26/2019 9 AM EDT 1,020.55 821.23 20
5/26/2019 10 AM EDT 1,020.51 823.44 430
5/26/2019 11 AM EDT 1,020.52 824.52 3,421
5/26/2019 12 PM EDT 1,020.53 824.64 3,424
5/26/2019 1 PM EDT 1,020.52 824.68 3,420
5/26/2019 2 PM EDT 1,020.49 826.08 3,759
5/26/2019 3 PM EDT 1,020.50 826.81 6,815
5/26/2019 4 PM EDT 1,020.48 826.78 6,803
5/26/2019 5 PM EDT 1,020.47 826.82 6,814
5/26/2019 6 PM EDT 1,020.47 826.80 6,808
5/26/2019 7 PM EDT 1,020.49 822.41 256

Elevations are in feet above sea level. Discharges are in cubic feet per second and are reported at the end of the hour.